»·PEaware :: N191TB KYKM-KGEG

N191TB :: KYKM-KGEG

FLIGHT INFORMATION

Flight Status: Arrived
Operator: Privately registered:
United States
More flights under this callsign
Pilot: Tim F. (26756)
Aircraft: BEECH AIRCRAFT BARON
(BE58)
More flights by this aircraft type
Origin: KYKM Yakima Air Term/Mcallister
United States
Destination: KGEG Spokane Intl
United States
More flights between these airports :: More routes between these airports
Route: +
File this flight plan on PilotEdge
Remarks:
Altitude:
(Current/Filed)
0ft
Speed:
(Current/Filed)
0kts
Departed: 23-Mar-20 08:50 PM
Arrived: 23-Mar-20 09:40 PM
Distance/Time
Traveled:
138nm/0:50
Distance/Time
To Go:
Arrived

Flight Plot

Page will automatically refresh every two minutes.


Map Options




Map Legend


Flown Route
Filed Route
Departure Airport
Arrival Airport
Navaid (VOR, NDB)
Fix

Horizontal Profiles

Position Reports

Time Latitude Longitude Heading Altitude Ground
Speed
23-Mar-20 20:37 46.569816 -120.541853 270 1071ft 0kts
23-Mar-20 20:38 46.569816 -120.541853 270 1071ft 0kts
23-Mar-20 20:39 46.569816 -120.541853 270 1071ft 0kts
23-Mar-20 20:40 46.569816 -120.541853 270 1071ft 0kts
23-Mar-20 20:41 46.569816 -120.541853 270 1071ft 0kts
23-Mar-20 20:42 46.569816 -120.541853 270 1071ft 0kts
23-Mar-20 20:43 46.569816 -120.541853 270 1071ft 0kts
23-Mar-20 20:44 46.569229 -120.541568 114 1070ft 7kts
23-Mar-20 20:45 46.568450 -120.538461 110 1063ft 10kts
23-Mar-20 20:46 46.567242 -120.533707 107 1055ft 14kts
23-Mar-20 20:47 46.566568 -120.531538 146 1051ft 0kts
23-Mar-20 20:48 46.565749 -120.532421 289 1052ft 17kts
23-Mar-20 20:49 46.575694 -120.571190 291 2005ft 125kts
23-Mar-20 20:50 46.556179 -120.581639 103 2543ft 148kts
23-Mar-20 20:51 46.553421 -120.522266 88 3124ft 150kts
23-Mar-20 20:52 46.559306 -120.460955 72 4318ft 168kts
23-Mar-20 20:53 46.576665 -120.397759 65 5458ft 173kts
23-Mar-20 20:54 46.596328 -120.332770 67 6337ft 180kts
23-Mar-20 20:55 46.616660 -120.265099 65 7176ft 183kts
23-Mar-20 20:56 46.636937 -120.197181 67 7969ft 184kts
23-Mar-20 20:57 46.656897 -120.127765 66 8699ft 187kts
23-Mar-20 20:58 46.680233 -120.056310 61 8727ft 188kts
23-Mar-20 20:59 46.705591 -119.984389 62 7753ft 204kts
23-Mar-20 21:00 46.730186 -119.916933 61 7752ft 169kts
23-Mar-20 21:01 46.752103 -119.857403 59 7663ft 173kts
23-Mar-20 21:02 46.772680 -119.791328 66 7448ft 180kts
23-Mar-20 21:03 46.791300 -119.725625 50 7304ft 182kts
23-Mar-20 21:04 46.828911 -119.686158 17 7597ft 200kts
23-Mar-20 21:05 46.869405 -119.629417 51 7688ft 202kts
23-Mar-20 21:06 46.914815 -119.586874 29 7644ft 198kts
23-Mar-20 21:07 46.943741 -119.519295 48 7660ft 196kts
23-Mar-20 21:08 46.978184 -119.461064 62 7483ft 181kts
23-Mar-20 21:09 47.003459 -119.392017 53 7824ft 195kts
23-Mar-20 21:10 47.020512 -119.315876 93 8008ft 207kts
23-Mar-20 21:11 47.023123 -119.231268 85 7659ft 222kts
23-Mar-20 21:12 47.029100 -119.150256 74 7295ft 176kts
23-Mar-20 21:13 47.068267 -119.104925 28 7428ft 197kts
23-Mar-20 21:14 47.105694 -119.043814 57 7423ft 212kts
23-Mar-20 21:15 47.133989 -118.966670 61 7423ft 214kts
23-Mar-20 21:16 47.161158 -118.888718 61 7423ft 214kts
23-Mar-20 21:17 47.188280 -118.810411 61 7423ft 214kts
23-Mar-20 21:18 47.215290 -118.732284 61 7424ft 214kts
23-Mar-20 21:19 47.242216 -118.654152 61 7424ft 214kts
23-Mar-20 21:20 47.269281 -118.575770 62 7424ft 214kts
23-Mar-20 21:21 47.296061 -118.497250 62 7424ft 214kts
23-Mar-20 21:22 47.322690 -118.419168 62 7479ft 211kts
23-Mar-20 21:23 47.348734 -118.342760 64 7506ft 213kts
23-Mar-20 21:24 47.375393 -118.264172 64 7122ft 212kts
23-Mar-20 21:25 47.401613 -118.186672 64 6453ft 211kts
23-Mar-20 21:26 47.427678 -118.109464 64 5645ft 209kts
23-Mar-20 21:27 47.452295 -118.036332 65 5502ft 188kts
23-Mar-20 21:28 47.475415 -117.967414 64 5508ft 192kts
23-Mar-20 21:29 47.499465 -117.895466 64 5196ft 191kts
23-Mar-20 21:30 47.522624 -117.826124 64 4702ft 186kts
23-Mar-20 21:31 47.544632 -117.760021 64 4571ft 175kts
23-Mar-20 21:32 47.565831 -117.696258 64 4503ft 169kts
23-Mar-20 21:33 47.586302 -117.633404 69 4543ft 166kts
23-Mar-20 21:34 47.597277 -117.571219 86 3732ft 131kts
23-Mar-20 21:35 47.602539 -117.520657 110 3304ft 117kts
23-Mar-20 21:36 47.596356 -117.476098 52 3444ft 114kts
23-Mar-20 21:37 47.616802 -117.494866 262 2846ft 95kts
23-Mar-20 21:38 47.616790 -117.530609 270 2372ft 73kts
23-Mar-20 21:39 47.617874 -117.534836 57 2367ft 1kts
23-Mar-20 21:40 47.617914 -117.530446 89 2369ft 11kts
23-Mar-20 21:41 47.618745 -117.528455 85 2368ft 0kts
23-Mar-20 21:42 47.618745 -117.528455 85 2368ft 0kts
23-Mar-20 21:43 47.618745 -117.528455 85 2368ft 0kts
23-Mar-20 21:44 47.618745 -117.528455 85 2368ft 0kts
23-Mar-20 21:45 47.618745 -117.528455 85 2368ft 0kts
23-Mar-20 21:46 47.618745 -117.528455 85 2368ft 0kts
23-Mar-20 21:47 47.618745 -117.528455 85 2368ft 0kts
23-Mar-20 21:48 47.618745 -117.528455 85 2368ft 0kts
23-Mar-20 21:49 47.618745 -117.528455 85 2368ft 0kts
23-Mar-20 21:50 47.618745 -117.528455 85 2368ft 0kts
23-Mar-20 21:51 47.618745 -117.528455 85 2368ft 0kts
23-Mar-20 21:52 47.618745 -117.528455 85 2368ft 0kts
23-Mar-20 21:53 47.618745 -117.528455 85 2368ft 0kts
23-Mar-20 21:54 47.618745 -117.528455 85 2368ft 0kts

Navigation Log

Ident Type
Flight plan parsing failed, navigation log unavailable